Bemis, South Dakota
Current Conditions -  °F | °C
As of 8:53 PM on Thursday 18 Dec 2014 (Local Time) from KATY Reporting Station
Haze Haze  
Wind Chill: 14°   Ceiling: 500
Heat Index: 24°   Visibility: 4mi
Dew Point: 22°   Wind: 9mph
Humidity: 91%   Direction: 170°S
Pressure: 30.12"   Gusts: NA
Location:  44.9022°N, 96.7801°W
Report Text: KATY 190253Z AUTO 17008KT 4SM BR OVC005 M04/M06 A3012 RMK AO2 SLP228 I1000 I3000 T10441056 58002
Loading
Personal Weather Stations






























Interactive Weather Map New forecast layout! Learn more

10-Day Weather Forecast

Advertisements
Track Severe Weather on mobile